createdAt,value
2022-11-30T00:01:22.564Z,97995.72
2022-11-30T00:03:53.937Z,97999.69
2022-11-30T00:06:23.531Z,98011.50
2022-11-30T00:08:55.685Z,97999.16
2022-11-30T00:11:24.763Z,97998.16
2022-11-30T00:13:52.176Z,98006.75
2022-11-30T00:16:19.515Z,98010.63
2022-11-30T00:18:46.736Z,98015.81
2022-11-30T00:21:15.767Z,98010.94
2022-11-30T00:23:46.169Z,98010.13
2022-11-30T00:26:18.133Z,98013.19
2022-11-30T00:28:46.181Z,98007.94
2022-11-30T00:31:16.660Z,98010.06
2022-11-30T00:33:44.131Z,98015.25
2022-11-30T00:36:17.837Z,98017.88
2022-11-30T00:38:46.254Z,98023.50
2022-11-30T00:41:14.020Z,98016.28
2022-11-30T00:43:41.572Z,98017.50
2022-11-30T00:46:09.969Z,98018.13
2022-11-30T00:48:41.257Z,98007.28
2022-11-30T00:51:11.212Z,98020.19
2022-11-30T00:53:39.362Z,98011.31
2022-11-30T00:56:07.946Z,98017.34
2022-11-30T00:58:35.165Z,98015.91
2022-11-30T01:01:03.274Z,98019.75
2022-11-30T01:03:30.736Z,98013.41
2022-11-30T01:06:09.580Z,98016.47
2022-11-30T01:08:36.925Z,98016.16
2022-11-30T01:11:18.008Z,98011.22
2022-11-30T01:13:45.305Z,98012.78
2022-11-30T01:16:20.281Z,98013.41
2022-11-30T01:18:48.134Z,98015.19
2022-11-30T01:21:19.565Z,98017.72
2022-11-30T01:23:47.788Z,98022.53
2022-11-30T01:26:16.184Z,98013.84
2022-11-30T01:28:44.690Z,98026.03
2022-11-30T01:31:14.785Z,98018.66
2022-11-30T01:33:43.175Z,98029.94
2022-11-30T01:36:15.619Z,98013.38
2022-11-30T01:38:52.823Z,98013.13
2022-11-30T01:41:32.543Z,98016.25
2022-11-30T01:44:05.766Z,98031.19
2022-11-30T01:46:46.404Z,98020.63
2022-11-30T01:49:23.491Z,98024.56
2022-11-30T01:52:15.181Z,98026.41
2022-11-30T01:55:03.101Z,98028.00
2022-11-30T01:57:59.729Z,98027.59
2022-11-30T02:00:27.060Z,98023.69
2022-11-30T02:03:11.453Z,98026.22
2022-11-30T02:05:40.948Z,98029.28
2022-11-30T02:08:14.052Z,98026.69
2022-11-30T02:10:51.934Z,98032.84
2022-11-30T02:14:01.820Z,98036.47
2022-11-30T02:17:21.032Z,98042.44
2022-11-30T02:20:46.307Z,98039.56
2022-11-30T02:23:40.977Z,98038.28
2022-11-30T02:26:14.870Z,98036.78
2022-11-30T02:29:18.014Z,98030.94
2022-11-30T02:32:21.238Z,98029.03
2022-11-30T02:34:50.370Z,98035.59
2022-11-30T02:37:19.680Z,98035.91
2022-11-30T02:39:46.910Z,98032.88
2022-11-30T02:42:16.265Z,98030.13
2022-11-30T02:44:50.673Z,98042.75
2022-11-30T02:47:24.567Z,98036.84
2022-11-30T02:50:27.957Z,98040.06
2022-11-30T02:52:56.057Z,98039.91
2022-11-30T02:55:23.824Z,98043.91
2022-11-30T02:57:50.988Z,98048.72
2022-11-30T03:00:19.085Z,98054.09
2022-11-30T03:02:46.371Z,98052.66
2022-11-30T03:05:13.655Z,98048.13
2022-11-30T03:07:40.887Z,98049.19
2022-11-30T03:10:09.335Z,98052.53
2022-11-30T03:12:36.982Z,98052.78
2022-11-30T03:15:06.004Z,98048.06
2022-11-30T03:17:33.400Z,98049.53
2022-11-30T03:20:00.730Z,98052.88
2022-11-30T03:22:27.934Z,98055.47
2022-11-30T03:24:55.161Z,98061.44
2022-11-30T03:27:22.979Z,98056.50
2022-11-30T03:29:50.224Z,98061.31
2022-11-30T03:32:18.475Z,98063.91
2022-11-30T03:34:46.039Z,98071.09
2022-11-30T03:37:13.587Z,98068.00
2022-11-30T03:39:40.803Z,98065.28
2022-11-30T03:42:08.077Z,98070.38
2022-11-30T03:44:35.853Z,98070.31
2022-11-30T03:47:03.061Z,98079.81
2022-11-30T03:49:30.286Z,98072.63
2022-11-30T03:51:57.484Z,98077.78
2022-11-30T03:54:24.662Z,98077.38
2022-11-30T03:56:51.855Z,98066.91
2022-11-30T03:59:18.954Z,98071.47
2022-11-30T04:01:46.195Z,98076.88
2022-11-30T04:04:13.670Z,98077.88
2022-11-30T04:06:40.816Z,98073.63
2022-11-30T04:09:09.955Z,98071.72
2022-11-30T04:11:37.286Z,98065.78
2022-11-30T04:14:04.506Z,98062.59
2022-11-30T04:16:31.852Z,98060.00
2022-11-30T04:18:59.372Z,98055.47
2022-11-30T04:21:26.850Z,98067.81
2022-11-30T04:23:54.039Z,98079.16
2022-11-30T04:26:21.292Z,98071.34
2022-11-30T04:28:48.582Z,98057.84
2022-11-30T04:31:17.014Z,98059.88
2022-11-30T04:33:44.338Z,98056.75
2022-11-30T04:36:20.312Z,98062.16
2022-11-30T04:38:49.482Z,98068.75
2022-11-30T04:41:16.787Z,98073.03
2022-11-30T04:43:43.931Z,98071.91
2022-11-30T04:46:11.530Z,98072.13
2022-11-30T04:48:38.998Z,98078.72
2022-11-30T04:51:08.503Z,98082.56
2022-11-30T04:53:37.533Z,98090.50
2022-11-30T04:56:10.037Z,98087.28
2022-11-30T04:58:38.827Z,98089.81
2022-11-30T05:01:07.256Z,98091.41
2022-11-30T05:03:35.277Z,98091.44
2022-11-30T05:06:03.470Z,98093.94
2022-11-30T05:08:30.808Z,98086.44
2022-11-30T05:10:58.760Z,98093.72
2022-11-30T05:13:26.490Z,98095.38
2022-11-30T05:15:54.172Z,98093.84
2022-11-30T05:18:21.983Z,98092.63
2022-11-30T05:20:51.507Z,98095.09
2022-11-30T05:23:19.879Z,98104.84
2022-11-30T05:25:47.536Z,98104.53
2022-11-30T05:28:15.221Z,98093.75
2022-11-30T05:30:43.569Z,98101.16
2022-11-30T05:33:11.289Z,98091.25
2022-11-30T05:35:38.916Z,98110.09
2022-11-30T05:38:06.138Z,98103.19
2022-11-30T05:40:33.791Z,98103.63
2022-11-30T05:43:03.068Z,98094.81
2022-11-30T05:45:31.094Z,98101.63
2022-11-30T05:47:58.453Z,98101.00
2022-11-30T05:50:25.770Z,98098.97
2022-11-30T05:52:58.208Z,98098.22
2022-11-30T05:55:25.786Z,98098.03
2022-11-30T05:57:53.573Z,98107.84
2022-11-30T06:00:22.088Z,98100.75
2022-11-30T06:02:49.893Z,98094.19
2022-11-30T06:05:17.473Z,98096.53
2022-11-30T06:07:44.949Z,98090.44
2022-11-30T06:10:12.708Z,98082.22
2022-11-30T06:12:40.046Z,98064.06
2022-11-30T06:15:08.897Z,98069.00
2022-11-30T06:17:38.007Z,98070.63
2022-11-30T06:20:07.001Z,98082.09
2022-11-30T06:22:34.492Z,98086.69
2022-11-30T06:25:01.824Z,98088.03
2022-11-30T06:27:32.484Z,98092.34
2022-11-30T06:29:59.895Z,98094.22
2022-11-30T06:32:27.067Z,98101.16
2022-11-30T06:34:54.269Z,98104.81
2022-11-30T06:37:21.514Z,98106.06
2022-11-30T06:42:37.419Z,98103.38
2022-11-30T06:45:07.081Z,98107.97
2022-11-30T06:47:34.322Z,98121.44
2022-11-30T06:50:01.530Z,98120.25
2022-11-30T06:52:32.155Z,98123.34
2022-11-30T06:54:59.595Z,98123.88
2022-11-30T06:57:28.967Z,98126.94
2022-11-30T06:59:57.113Z,98131.22
2022-11-30T07:02:24.810Z,98122.59
2022-11-30T07:04:52.059Z,98121.22
2022-11-30T07:07:19.383Z,98126.25
2022-11-30T07:09:46.854Z,98130.78
2022-11-30T07:12:14.103Z,98137.03
2022-11-30T07:14:41.508Z,98149.53
2022-11-30T07:17:08.664Z,98138.97
2022-11-30T07:19:35.858Z,98146.25
2022-11-30T07:22:03.402Z,98135.97
2022-11-30T07:24:49.652Z,98138.91
2022-11-30T07:27:17.061Z,98138.25
2022-11-30T07:29:44.283Z,98143.66
2022-11-30T07:32:11.488Z,98138.78
2022-11-30T07:34:38.715Z,98138.78
2022-11-30T07:37:06.180Z,98138.41
2022-11-30T07:39:33.446Z,98138.75
2022-11-30T07:42:00.720Z,98145.09
2022-11-30T07:44:28.070Z,98144.34
2022-11-30T07:46:55.286Z,98153.91
2022-11-30T07:49:22.620Z,98152.28
2022-11-30T07:51:49.905Z,98144.94
2022-11-30T07:54:17.112Z,98147.69
2022-11-30T07:56:44.472Z,98154.53
2022-11-30T07:59:11.707Z,98147.63
2022-11-30T08:01:38.981Z,98151.63
2022-11-30T08:04:06.424Z,98147.19
2022-11-30T08:06:33.772Z,98140.47
2022-11-30T08:09:04.397Z,98141.25
2022-11-30T08:11:36.422Z,98149.84
2022-11-30T08:14:04.652Z,98142.66
2022-11-30T08:16:38.293Z,98137.38
2022-11-30T08:19:05.595Z,98140.06
2022-11-30T08:21:32.933Z,98135.69
2022-11-30T08:24:00.434Z,98131.44
2022-11-30T08:26:33.885Z,98137.09
2022-11-30T08:29:02.277Z,98148.81
2022-11-30T08:31:36.154Z,98149.78
2022-11-30T08:34:11.336Z,98149.97
2022-11-30T08:36:40.093Z,98156.16
2022-11-30T08:39:09.178Z,98146.34
2022-11-30T08:41:36.660Z,98150.47
2022-11-30T08:44:03.927Z,98153.81
2022-11-30T08:47:01.964Z,98151.91
2022-11-30T08:49:23.002Z,98151.81
2022-11-30T08:54:45.367Z,98150.66
2022-11-30T08:57:12.835Z,98162.31
2022-11-30T08:59:40.026Z,98156.84
2022-11-30T09:02:10.514Z,98158.88
2022-11-30T09:04:37.733Z,98161.41
2022-11-30T09:07:05.331Z,98160.13
2022-11-30T09:09:32.751Z,98165.78
2022-11-30T09:11:59.919Z,98165.84
2022-11-30T09:14:27.197Z,98168.72
2022-11-30T09:16:56.101Z,98161.66
2022-11-30T09:19:23.460Z,98162.72
2022-11-30T09:21:52.177Z,98163.69
2022-11-30T09:24:21.031Z,98163.94
2022-11-30T09:26:48.760Z,98169.81
2022-11-30T09:29:16.084Z,98170.97
2022-11-30T09:31:43.442Z,98170.97
2022-11-30T09:34:12.411Z,98169.19
2022-11-30T09:36:39.702Z,98173.31
2022-11-30T09:39:09.401Z,98174.69
2022-11-30T09:42:10.093Z,98165.63
2022-11-30T09:44:40.272Z,98175.13
2022-11-30T09:48:03.166Z,98169.66
2022-11-30T09:50:38.315Z,98165.06
2022-11-30T09:53:29.501Z,98174.94
2022-11-30T09:55:59.005Z,98163.47
2022-11-30T09:58:52.156Z,98162.75
2022-11-30T10:01:21.871Z,98165.06
2022-11-30T10:03:49.545Z,98160.22
2022-11-30T10:06:49.186Z,98161.94
2022-11-30T10:09:53.201Z,98164.94
2022-11-30T10:13:00.850Z,98167.34
2022-11-30T10:16:01.424Z,98167.59
2022-11-30T10:19:02.686Z,98164.72
2022-11-30T10:22:09.085Z,98160.63
2022-11-30T10:24:54.957Z,98167.44
2022-11-30T10:27:54.627Z,98164.66
2022-11-30T10:30:25.384Z,98165.81
2022-11-30T10:32:57.491Z,98162.66
2022-11-30T10:35:49.448Z,98168.81
2022-11-30T10:38:21.359Z,98163.75
2022-11-30T10:41:03.401Z,98162.34
2022-11-30T10:43:45.625Z,98168.88
2022-11-30T10:46:24.691Z,98167.66
2022-11-30T10:49:06.734Z,98161.66
2022-11-30T10:51:37.774Z,98161.56
2022-11-30T10:54:16.473Z,98161.31
2022-11-30T10:56:43.934Z,98166.78
2022-11-30T10:59:26.329Z,98170.38
2022-11-30T11:01:53.865Z,98161.66
2022-11-30T11:04:27.420Z,98165.94
2022-11-30T11:07:13.750Z,98172.53
2022-11-30T11:09:50.753Z,98168.88
2022-11-30T11:12:30.998Z,98167.78
2022-11-30T11:15:24.822Z,98166.00
2022-11-30T11:17:54.044Z,98164.16
2022-11-30T11:20:44.448Z,98165.50
2022-11-30T11:23:41.126Z,98166.00
2022-11-30T11:26:27.846Z,98156.72
2022-11-30T11:28:59.577Z,98158.97
2022-11-30T11:31:46.370Z,98153.06
2022-11-30T11:34:31.750Z,98153.69
2022-11-30T11:37:19.643Z,98148.44
2022-11-30T11:40:08.839Z,98147.53
2022-11-30T11:42:49.279Z,98146.44
2022-11-30T11:45:35.007Z,98145.78
2022-11-30T11:48:08.269Z,98149.97
2022-11-30T11:51:05.630Z,98147.28
2022-11-30T11:53:52.998Z,98145.97
2022-11-30T11:56:36.888Z,98153.78
2022-11-30T11:59:10.057Z,98144.88
2022-11-30T12:02:03.689Z,98148.88
2022-11-30T12:04:45.776Z,98155.00
2022-11-30T12:07:34.937Z,98157.41
2022-11-30T12:13:24.923Z,98157.28
2022-11-30T12:16:29.348Z,98161.28
2022-11-30T12:19:27.667Z,98158.97
2022-11-30T12:22:51.605Z,98163.75
2022-11-30T12:25:31.105Z,98170.47
2022-11-30T12:28:31.881Z,98163.00
2022-11-30T12:31:12.244Z,98168.97
2022-11-30T12:33:48.132Z,98164.91
2022-11-30T12:36:28.784Z,98169.94
2022-11-30T12:39:10.249Z,98167.50
2022-11-30T12:42:20.414Z,98159.97
2022-11-30T12:45:22.115Z,98162.47
2022-11-30T12:48:18.351Z,98159.28
2022-11-30T12:51:29.831Z,98157.16
2022-11-30T12:54:53.489Z,98160.13
2022-11-30T12:58:00.791Z,98162.22
2022-11-30T13:00:50.067Z,98157.81
2022-11-30T13:03:45.371Z,98162.47
2022-11-30T13:06:23.308Z,98153.09
2022-11-30T13:09:21.454Z,98158.72
2022-11-30T13:11:56.474Z,98164.94
2022-11-30T13:14:27.352Z,98158.81
2022-11-30T13:17:08.050Z,98161.47
2022-11-30T13:19:50.616Z,98160.50
2022-11-30T13:22:48.338Z,98164.50
2022-11-30T13:26:23.846Z,98160.06
2022-11-30T13:29:07.854Z,98159.97
2022-11-30T13:32:17.710Z,98158.44
2022-11-30T13:35:15.124Z,98154.84
2022-11-30T13:37:42.426Z,98151.25
2022-11-30T13:40:22.536Z,98153.97
2022-11-30T13:42:56.025Z,98147.09
2022-11-30T13:45:41.501Z,98151.91
2022-11-30T13:48:43.519Z,98149.47
2022-11-30T13:51:11.849Z,98149.47
2022-11-30T13:53:41.081Z,98154.84
2022-11-30T13:56:33.912Z,98145.34
2022-11-30T13:59:23.511Z,98155.78
2022-11-30T14:02:42.122Z,98153.31
2022-11-30T14:05:18.185Z,98146.78
2022-11-30T14:08:10.358Z,98156.03
2022-11-30T14:10:46.558Z,98160.34
2022-11-30T14:13:14.319Z,98156.59
2022-11-30T14:15:44.300Z,98153.34
2022-11-30T14:18:19.926Z,98156.84
2022-11-30T14:21:00.992Z,98157.56
2022-11-30T14:23:47.102Z,98155.06
2022-11-30T14:26:20.823Z,98156.94
2022-11-30T14:29:08.575Z,98153.53
2022-11-30T14:32:00.146Z,98156.47
2022-11-30T14:34:46.143Z,98156.56
2022-11-30T14:37:33.255Z,98147.81
2022-11-30T14:40:07.925Z,98149.44
2022-11-30T14:42:36.171Z,98155.81
2022-11-30T14:45:04.223Z,98160.00
2022-11-30T14:47:36.201Z,98161.66
2022-11-30T14:50:06.293Z,98160.16
2022-11-30T14:52:52.867Z,98169.72
2022-11-30T14:55:33.864Z,98166.63
2022-11-30T14:58:07.057Z,98172.59
2022-11-30T15:00:42.574Z,98171.03
2022-11-30T15:03:38.949Z,98173.16
2022-11-30T15:06:08.232Z,98172.16
2022-11-30T15:09:04.394Z,98181.00
2022-11-30T15:11:31.935Z,98170.53
2022-11-30T15:14:10.735Z,98177.38
2022-11-30T15:16:46.301Z,98183.75
2022-11-30T15:19:34.734Z,98187.38
2022-11-30T15:22:02.136Z,98188.59
2022-11-30T15:24:29.969Z,98189.94
2022-11-30T15:27:10.693Z,98190.84
2022-11-30T15:29:47.321Z,98188.13
2022-11-30T15:32:23.284Z,98195.56
2022-11-30T15:34:57.702Z,98194.59
2022-11-30T15:37:41.227Z,98197.13
2022-11-30T15:40:10.952Z,98206.38
2022-11-30T15:42:40.552Z,98204.94
2022-11-30T15:45:25.548Z,98207.81
2022-11-30T15:47:54.782Z,98202.28
2022-11-30T15:50:31.146Z,98208.81
2022-11-30T15:53:22.953Z,98209.69
2022-11-30T15:56:15.764Z,98206.06
2022-11-30T15:58:59.693Z,98204.94
2022-11-30T16:01:28.213Z,98210.84
2022-11-30T16:03:55.380Z,98218.81
2022-11-30T16:06:26.476Z,98215.19
2022-11-30T16:08:54.914Z,98226.16
2022-11-30T16:11:22.641Z,98232.44
2022-11-30T16:13:49.998Z,98224.22
2022-11-30T16:16:37.616Z,98225.78
2022-11-30T16:19:04.993Z,98222.28
2022-11-30T16:21:32.364Z,98221.50
2022-11-30T16:23:59.668Z,98220.41
2022-11-30T16:26:49.920Z,98218.19
2022-11-30T16:29:14.352Z,98220.25
2022-11-30T16:31:41.673Z,98218.09
2022-11-30T16:34:11.962Z,98216.78
2022-11-30T16:36:39.378Z,98219.03
2022-11-30T16:39:06.767Z,98216.13
2022-11-30T16:41:36.083Z,98218.63
2022-11-30T16:44:08.745Z,98215.84
2022-11-30T16:46:37.065Z,98223.50
2022-11-30T16:49:04.280Z,98232.16
2022-11-30T16:51:34.852Z,98226.31
2022-11-30T16:54:02.306Z,98226.59
2022-11-30T16:56:29.706Z,98219.50
2022-11-30T16:58:56.988Z,98216.38
2022-11-30T17:01:38.635Z,98217.16
2022-11-30T17:04:26.564Z,98212.69
2022-11-30T17:07:00.432Z,98211.28
2022-11-30T17:09:30.484Z,98214.84
2022-11-30T17:11:58.080Z,98220.66
2022-11-30T17:14:25.399Z,98221.41
2022-11-30T17:16:52.831Z,98219.22
2022-11-30T17:19:20.165Z,98219.84
2022-11-30T17:21:48.536Z,98217.69
2022-11-30T17:24:16.322Z,98219.13
2022-11-30T17:26:43.777Z,98212.44
2022-11-30T17:29:11.086Z,98211.34
2022-11-30T17:31:38.420Z,98211.19
2022-11-30T17:34:08.598Z,98216.53
2022-11-30T17:36:35.978Z,98218.13
2022-11-30T17:39:08.377Z,98218.63
2022-11-30T17:41:35.750Z,98223.19
2022-11-30T17:44:03.364Z,98233.53
2022-11-30T17:46:30.887Z,98229.41
2022-11-30T17:48:58.241Z,98231.28
2022-11-30T17:51:25.618Z,98234.28
2022-11-30T17:53:52.938Z,98231.34
2022-11-30T17:56:20.344Z,98237.84
2022-11-30T17:58:49.358Z,98238.47
2022-11-30T18:01:22.270Z,98243.91
2022-11-30T18:03:50.411Z,98239.34
2022-11-30T18:06:18.710Z,98235.75
2022-11-30T18:08:46.418Z,98237.25
2022-11-30T18:11:20.925Z,98239.28
2022-11-30T18:13:51.708Z,98241.38
2022-11-30T18:16:25.920Z,98237.50
2022-11-30T18:18:54.103Z,98242.81
2022-11-30T18:21:23.691Z,98239.75
2022-11-30T18:23:53.247Z,98242.25
2022-11-30T18:26:24.160Z,98245.13
2022-11-30T18:28:56.791Z,98249.94
2022-11-30T18:31:25.051Z,98248.94
2022-11-30T18:34:01.681Z,98251.69
2022-11-30T18:36:29.389Z,98246.13
2022-11-30T18:38:57.213Z,98252.06
2022-11-30T18:41:26.895Z,98251.16
2022-11-30T18:43:54.871Z,98258.22
2022-11-30T18:46:22.603Z,98253.31
2022-11-30T18:48:51.738Z,98264.50
2022-11-30T18:51:25.905Z,98254.88
2022-11-30T18:54:04.819Z,98252.03
2022-11-30T18:56:36.009Z,98255.44
2022-11-30T18:59:07.837Z,98252.44
2022-11-30T19:01:36.216Z,98258.16
2022-11-30T19:04:10.368Z,98261.13
2022-11-30T19:06:39.954Z,98260.69
2022-11-30T19:09:13.347Z,98257.94
2022-11-30T19:11:42.713Z,98258.53
2022-11-30T19:14:14.028Z,98258.13
2022-11-30T19:16:42.082Z,98260.31
2022-11-30T19:19:14.177Z,98265.22
2022-11-30T19:21:45.273Z,98265.91
2022-11-30T19:24:12.655Z,98259.94
2022-11-30T19:26:40.438Z,98257.03
2022-11-30T19:29:08.421Z,98258.91
2022-11-30T19:31:35.782Z,98257.00
2022-11-30T19:34:09.081Z,98268.03
2022-11-30T19:36:39.755Z,98267.53
2022-11-30T19:39:07.116Z,98262.75
2022-11-30T19:41:34.731Z,98260.19
2022-11-30T19:44:03.914Z,98261.22
2022-11-30T19:46:33.424Z,98257.22
2022-11-30T19:49:02.186Z,98259.72
2022-11-30T19:51:31.363Z,98262.22
2022-11-30T19:54:01.821Z,98258.53
2022-11-30T19:56:34.287Z,98257.94
2022-11-30T19:59:05.604Z,98261.63
2022-11-30T20:01:34.508Z,98256.16
2022-11-30T20:04:02.472Z,98257.53
2022-11-30T20:06:37.044Z,98263.59
2022-11-30T20:09:06.492Z,98256.69
2022-11-30T20:11:34.358Z,98247.22
2022-11-30T20:14:01.928Z,98252.63
2022-11-30T20:16:29.536Z,98248.72
2022-11-30T20:19:03.229Z,98256.13
2022-11-30T20:21:34.139Z,98260.00
2022-11-30T20:24:07.461Z,98254.53
2022-11-30T20:26:39.801Z,98266.84
2022-11-30T20:29:13.058Z,98265.13
2022-11-30T20:31:41.255Z,98265.09
2022-11-30T20:34:09.205Z,98259.06
2022-11-30T20:36:37.574Z,98255.56
2022-11-30T20:39:06.655Z,98257.19
2022-11-30T20:41:34.217Z,98262.09
2022-11-30T20:44:01.876Z,98260.47
2022-11-30T20:46:33.183Z,98257.22
2022-11-30T20:49:02.706Z,98271.69
2022-11-30T20:51:33.475Z,98263.13
2022-11-30T20:54:08.793Z,98261.41
2022-11-30T20:56:37.507Z,98256.34
2022-11-30T20:59:19.520Z,98256.03
2022-11-30T21:01:47.372Z,98251.38
2022-11-30T21:04:14.725Z,98254.84
2022-11-30T21:06:45.615Z,98259.22
2022-11-30T21:09:15.206Z,98255.28
2022-11-30T21:11:43.353Z,98262.25
2022-11-30T21:14:10.907Z,98260.38
2022-11-30T21:16:38.488Z,98253.44
2022-11-30T21:19:06.269Z,98265.38
2022-11-30T21:21:35.757Z,98260.19
2022-11-30T21:24:07.716Z,98265.03
2022-11-30T21:26:41.512Z,98261.97
2022-11-30T21:29:14.170Z,98263.94
2022-11-30T21:31:42.645Z,98266.47
2022-11-30T21:34:10.215Z,98277.91
2022-11-30T21:36:37.694Z,98275.59
2022-11-30T21:39:09.325Z,98270.63
2022-11-30T21:41:39.221Z,98278.00
2022-11-30T21:44:10.803Z,98279.78
2022-11-30T21:46:38.827Z,98275.69
2022-11-30T21:49:07.071Z,98271.06
2022-11-30T21:51:34.504Z,98269.34
2022-11-30T21:54:05.904Z,98273.94
2022-11-30T21:56:38.739Z,98266.84
2022-11-30T21:59:08.734Z,98267.34
2022-11-30T22:01:40.024Z,98263.38
2022-11-30T22:04:09.777Z,98277.75
2022-11-30T22:06:39.892Z,98276.47
2022-11-30T22:09:16.553Z,98273.97
2022-11-30T22:11:45.759Z,98271.03
2022-11-30T22:14:16.486Z,98278.03
2022-11-30T22:16:44.251Z,98284.44
2022-11-30T22:19:11.970Z,98282.88
2022-11-30T22:21:40.772Z,98283.75
2022-11-30T22:24:12.981Z,98289.88
2022-11-30T22:26:41.451Z,98279.72
2022-11-30T22:29:22.498Z,98281.16
2022-11-30T22:31:52.261Z,98285.69
2022-11-30T22:34:20.557Z,98278.03
2022-11-30T22:36:48.492Z,98292.97
2022-11-30T22:39:22.520Z,98275.03
2022-11-30T22:41:55.108Z,98273.41
2022-11-30T22:44:24.657Z,98275.72
2022-11-30T22:46:52.115Z,98272.03
2022-11-30T22:49:21.538Z,98270.56
2022-11-30T22:51:50.024Z,98271.09
2022-11-30T22:54:18.008Z,98264.09
2022-11-30T22:56:46.746Z,98262.63
2022-11-30T22:59:15.680Z,98266.19
2022-11-30T23:01:46.786Z,98262.00
2022-11-30T23:04:20.156Z,98257.59
2022-11-30T23:06:49.336Z,98251.91
2022-11-30T23:09:20.423Z,98251.69
2022-11-30T23:11:48.233Z,98251.81
2022-11-30T23:14:16.642Z,98249.50
2022-11-30T23:16:45.488Z,98257.13
2022-11-30T23:19:13.999Z,98250.53
2022-11-30T23:21:44.963Z,98253.88
2022-11-30T23:24:20.835Z,98247.16
2022-11-30T23:26:48.733Z,98250.22
2022-11-30T23:29:17.731Z,98246.59
2022-11-30T23:31:46.792Z,98241.59
2022-11-30T23:34:22.325Z,98236.13
2022-11-30T23:36:50.797Z,98247.63
2022-11-30T23:39:20.229Z,98245.69
2022-11-30T23:41:48.442Z,98247.34
2022-11-30T23:44:15.900Z,98244.28
2022-11-30T23:46:43.336Z,98247.78
2022-11-30T23:49:14.293Z,98246.91
2022-11-30T23:51:42.581Z,98239.47
2022-11-30T23:54:09.970Z,98242.59
2022-11-30T23:56:37.221Z,98239.94
2022-11-30T23:59:04.406Z,98238.44
